sensor_id;sensor_type;location;lat;lon;timestamp;P1;durP1;ratioP1;P2;durP2;ratioP2
10088;SDS011;51898;49.864;8.550;2023-11-19T00:01:07;14.80;;;8.90;;
10088;SDS011;51898;49.864;8.550;2023-11-19T00:04:11;12.63;;;9.37;;
10088;SDS011;51898;49.864;8.550;2023-11-19T00:07:13;12.77;;;8.37;;
10088;SDS011;51898;49.864;8.550;2023-11-19T00:10:16;12.20;;;9.40;;
10088;SDS011;51898;49.864;8.550;2023-11-19T00:13:20;15.10;;;9.60;;
10088;SDS011;51898;49.864;8.550;2023-11-19T00:16:22;14.03;;;10.40;;
10088;SDS011;51898;49.864;8.550;2023-11-19T00:19:24;14.20;;;9.93;;
10088;SDS011;51898;49.864;8.550;2023-11-19T00:22:27;12.50;;;9.60;;
10088;SDS011;51898;49.864;8.550;2023-11-19T00:25:29;12.57;;;9.57;;
10088;SDS011;51898;49.864;8.550;2023-11-19T00:28:31;10.27;;;8.80;;
10088;SDS011;51898;49.864;8.550;2023-11-19T00:31:34;11.00;;;8.87;;
10088;SDS011;51898;49.864;8.550;2023-11-19T00:34:36;12.60;;;9.23;;
10088;SDS011;51898;49.864;8.550;2023-11-19T00:37:38;12.30;;;9.57;;
10088;SDS011;51898;49.864;8.550;2023-11-19T00:40:43;10.17;;;8.50;;
10088;SDS011;51898;49.864;8.550;2023-11-19T00:43:45;15.90;;;8.80;;
10088;SDS011;51898;49.864;8.550;2023-11-19T00:46:47;12.47;;;8.80;;
10088;SDS011;51898;49.864;8.550;2023-11-19T00:49:49;12.53;;;9.33;;
10088;SDS011;51898;49.864;8.550;2023-11-19T00:52:51;10.00;;;8.47;;
10088;SDS011;51898;49.864;8.550;2023-11-19T00:55:53;11.67;;;9.37;;
10088;SDS011;51898;49.864;8.550;2023-11-19T00:58:54;9.70;;;8.20;;
10088;SDS011;51898;49.864;8.550;2023-11-19T01:01:57;13.07;;;9.27;;
10088;SDS011;51898;49.864;8.550;2023-11-19T01:04:58;11.37;;;8.27;;
10088;SDS011;51898;49.864;8.550;2023-11-19T01:08:00;13.37;;;9.97;;
10088;SDS011;51898;49.864;8.550;2023-11-19T01:11:02;11.30;;;9.17;;
10088;SDS011;51898;49.864;8.550;2023-11-19T01:14:05;11.63;;;9.10;;
10088;SDS011;51898;49.864;8.550;2023-11-19T01:17:07;17.57;;;9.57;;
10088;SDS011;51898;49.864;8.550;2023-11-19T01:20:10;9.97;;;8.23;;
10088;SDS011;51898;49.864;8.550;2023-11-19T01:23:14;10.37;;;9.30;;
10088;SDS011;51898;49.864;8.550;2023-11-19T01:26:16;10.73;;;8.70;;
10088;SDS011;51898;49.864;8.550;2023-11-19T01:29:18;13.80;;;9.20;;
10088;SDS011;51898;49.864;8.550;2023-11-19T01:32:21;12.60;;;8.23;;
10088;SDS011;51898;49.864;8.550;2023-11-19T01:35:25;8.60;;;7.20;;
10088;SDS011;51898;49.864;8.550;2023-11-19T01:38:28;9.47;;;7.90;;
10088;SDS011;51898;49.864;8.550;2023-11-19T01:41:36;9.63;;;7.40;;
10088;SDS011;51898;49.864;8.550;2023-11-19T01:44:40;9.63;;;7.70;;
10088;SDS011;51898;49.864;8.550;2023-11-19T01:47:41;8.77;;;6.73;;
10088;SDS011;51898;49.864;8.550;2023-11-19T01:50:44;8.67;;;7.10;;
10088;SDS011;51898;49.864;8.550;2023-11-19T01:53:46;8.40;;;6.53;;
10088;SDS011;51898;49.864;8.550;2023-11-19T01:56:49;7.73;;;6.80;;
10088;SDS011;51898;49.864;8.550;2023-11-19T01:59:51;10.00;;;6.60;;
10088;SDS011;51898;49.864;8.550;2023-11-19T02:02:54;8.43;;;5.90;;
10088;SDS011;51898;49.864;8.550;2023-11-19T02:05:56;8.33;;;6.10;;
10088;SDS011;51898;49.864;8.550;2023-11-19T02:08:58;6.37;;;5.67;;
10088;SDS011;51898;49.864;8.550;2023-11-19T02:12:00;6.03;;;5.43;;
10088;SDS011;51898;49.864;8.550;2023-11-19T02:15:02;6.40;;;5.17;;
10088;SDS011;51898;49.864;8.550;2023-11-19T02:18:17;5.97;;;5.37;;
10088;SDS011;51898;49.864;8.550;2023-11-19T02:21:20;6.87;;;4.67;;
10088;SDS011;51898;49.864;8.550;2023-11-19T02:24:22;6.60;;;5.43;;
10088;SDS011;51898;49.864;8.550;2023-11-19T02:30:34;5.30;;;4.50;;
10088;SDS011;51898;49.864;8.550;2023-11-19T02:33:39;5.30;;;4.77;;
10088;SDS011;51898;49.864;8.550;2023-11-19T02:36:44;4.60;;;4.20;;
10088;SDS011;51898;49.864;8.550;2023-11-19T02:39:48;5.87;;;5.37;;
10088;SDS011;51898;49.864;8.550;2023-11-19T02:42:50;6.40;;;4.80;;
10088;SDS011;51898;49.864;8.550;2023-11-19T02:45:52;5.70;;;5.20;;
10088;SDS011;51898;49.864;8.550;2023-11-19T02:48:57;5.80;;;5.30;;
10088;SDS011;51898;49.864;8.550;2023-11-19T02:51:58;5.93;;;5.17;;
10088;SDS011;51898;49.864;8.550;2023-11-19T02:55:00;6.10;;;5.50;;
10088;SDS011;51898;49.864;8.550;2023-11-19T02:58:02;5.73;;;5.13;;
10088;SDS011;51898;49.864;8.550;2023-11-19T03:01:09;5.63;;;5.13;;
10088;SDS011;51898;49.864;8.550;2023-11-19T03:04:20;5.10;;;4.60;;
10088;SDS011;51898;49.864;8.550;2023-11-19T03:07:22;7.03;;;4.50;;
10088;SDS011;51898;49.864;8.550;2023-11-19T03:10:23;5.60;;;4.97;;
10088;SDS011;51898;49.864;8.550;2023-11-19T03:13:25;5.40;;;4.90;;
10088;SDS011;51898;49.864;8.550;2023-11-19T03:16:27;5.53;;;5.03;;
10088;SDS011;51898;49.864;8.550;2023-11-19T03:19:29;6.00;;;5.43;;
10088;SDS011;51898;49.864;8.550;2023-11-19T03:22:31;5.27;;;4.77;;
10088;SDS011;51898;49.864;8.550;2023-11-19T03:25:35;5.53;;;5.03;;
10088;SDS011;51898;49.864;8.550;2023-11-19T03:28:37;5.50;;;4.97;;
10088;SDS011;51898;49.864;8.550;2023-11-19T03:31:41;6.70;;;5.10;;
10088;SDS011;51898;49.864;8.550;2023-11-19T03:34:44;5.60;;;5.00;;
10088;SDS011;51898;49.864;8.550;2023-11-19T03:37:45;5.47;;;4.97;;
10088;SDS011;51898;49.864;8.550;2023-11-19T03:40:47;5.30;;;4.70;;
10088;SDS011;51898;49.864;8.550;2023-11-19T03:43:50;4.87;;;4.37;;
10088;SDS011;51898;49.864;8.550;2023-11-19T03:46:51;4.53;;;3.97;;
10088;SDS011;51898;49.864;8.550;2023-11-19T03:49:53;5.23;;;4.73;;
10088;SDS011;51898;49.864;8.550;2023-11-19T03:52:55;7.23;;;4.40;;
10088;SDS011;51898;49.864;8.550;2023-11-19T03:55:57;5.57;;;4.23;;
10088;SDS011;51898;49.864;8.550;2023-11-19T03:58:58;5.10;;;4.00;;
10088;SDS011;51898;49.864;8.550;2023-11-19T04:02:00;5.53;;;4.50;;
10088;SDS011;51898;49.864;8.550;2023-11-19T04:05:03;5.07;;;4.07;;
10088;SDS011;51898;49.864;8.550;2023-11-19T04:08:06;5.00;;;4.50;;
10088;SDS011;51898;49.864;8.550;2023-11-19T04:11:08;5.50;;;4.10;;
10088;SDS011;51898;49.864;8.550;2023-11-19T04:14:09;5.53;;;4.30;;
10088;SDS011;51898;49.864;8.550;2023-11-19T04:17:11;4.87;;;4.33;;
10088;SDS011;51898;49.864;8.550;2023-11-19T04:20:13;6.50;;;4.33;;
10088;SDS011;51898;49.864;8.550;2023-11-19T04:23:16;4.30;;;3.43;;
10088;SDS011;51898;49.864;8.550;2023-11-19T04:26:18;6.03;;;4.03;;
10088;SDS011;51898;49.864;8.550;2023-11-19T04:29:19;7.30;;;4.40;;
10088;SDS011;51898;49.864;8.550;2023-11-19T04:32:21;3.80;;;3.40;;
10088;SDS011;51898;49.864;8.550;2023-11-19T04:35:23;4.70;;;3.77;;
10088;SDS011;51898;49.864;8.550;2023-11-19T04:38:26;3.60;;;3.30;;
10088;SDS011;51898;49.864;8.550;2023-11-19T04:41:28;5.37;;;4.00;;
10088;SDS011;51898;49.864;8.550;2023-11-19T04:44:30;4.47;;;4.03;;
10088;SDS011;51898;49.864;8.550;2023-11-19T04:47:32;8.73;;;3.97;;
10088;SDS011;51898;49.864;8.550;2023-11-19T04:50:35;4.40;;;4.00;;
10088;SDS011;51898;49.864;8.550;2023-11-19T04:53:37;5.30;;;4.80;;
10088;SDS011;51898;49.864;8.550;2023-11-19T04:56:39;5.43;;;4.87;;
10088;SDS011;51898;49.864;8.550;2023-11-19T04:59:41;6.30;;;5.30;;
10088;SDS011;51898;49.864;8.550;2023-11-19T05:02:43;6.97;;;6.07;;
10088;SDS011;51898;49.864;8.550;2023-11-19T05:05:45;5.73;;;5.13;;
10088;SDS011;51898;49.864;8.550;2023-11-19T05:08:46;6.00;;;5.40;;
10088;SDS011;51898;49.864;8.550;2023-11-19T05:11:48;6.17;;;5.57;;
10088;SDS011;51898;49.864;8.550;2023-11-19T05:14:52;5.90;;;4.80;;
10088;SDS011;51898;49.864;8.550;2023-11-19T05:17:54;5.50;;;5.00;;
10088;SDS011;51898;49.864;8.550;2023-11-19T05:20:56;4.60;;;4.07;;
10088;SDS011;51898;49.864;8.550;2023-11-19T05:23:57;5.10;;;4.10;;
10088;SDS011;51898;49.864;8.550;2023-11-19T05:26:59;4.90;;;3.83;;
10088;SDS011;51898;49.864;8.550;2023-11-19T05:30:01;4.50;;;4.10;;
10088;SDS011;51898;49.864;8.550;2023-11-19T05:33:04;6.67;;;5.00;;
10088;SDS011;51898;49.864;8.550;2023-11-19T05:36:05;5.70;;;4.00;;
10088;SDS011;51898;49.864;8.550;2023-11-19T05:39:09;6.20;;;3.80;;
10088;SDS011;51898;49.864;8.550;2023-11-19T05:42:12;3.30;;;2.93;;
10088;SDS011;51898;49.864;8.550;2023-11-19T05:45:14;3.97;;;3.57;;
10088;SDS011;51898;49.864;8.550;2023-11-19T05:48:15;5.70;;;3.77;;
10088;SDS011;51898;49.864;8.550;2023-11-19T05:51:18;5.10;;;3.60;;
10088;SDS011;51898;49.864;8.550;2023-11-19T05:54:19;5.30;;;3.47;;
10088;SDS011;51898;49.864;8.550;2023-11-19T05:57:22;5.90;;;3.50;;
10088;SDS011;51898;49.864;8.550;2023-11-19T06:00:26;3.97;;;3.33;;
10088;SDS011;51898;49.864;8.550;2023-11-19T06:03:28;4.70;;;3.60;;
10088;SDS011;51898;49.864;8.550;2023-11-19T06:06:30;5.23;;;3.50;;
10088;SDS011;51898;49.864;8.550;2023-11-19T06:09:32;6.57;;;4.20;;
10088;SDS011;51898;49.864;8.550;2023-11-19T06:12:35;4.60;;;3.60;;
10088;SDS011;51898;49.864;8.550;2023-11-19T06:15:39;8.13;;;4.10;;
10088;SDS011;51898;49.864;8.550;2023-11-19T06:18:42;7.00;;;3.77;;
10088;SDS011;51898;49.864;8.550;2023-11-19T06:21:45;4.90;;;3.70;;
10088;SDS011;51898;49.864;8.550;2023-11-19T06:24:48;4.90;;;3.80;;
10088;SDS011;51898;49.864;8.550;2023-11-19T06:27:50;5.37;;;4.20;;
10088;SDS011;51898;49.864;8.550;2023-11-19T06:30:52;6.47;;;4.30;;
10088;SDS011;51898;49.864;8.550;2023-11-19T06:33:53;5.47;;;4.13;;
10088;SDS011;51898;49.864;8.550;2023-11-19T06:36:55;6.10;;;4.03;;
10088;SDS011;51898;49.864;8.550;2023-11-19T06:39:57;8.90;;;4.13;;
10088;SDS011;51898;49.864;8.550;2023-11-19T06:42:59;6.07;;;4.30;;
10088;SDS011;51898;49.864;8.550;2023-11-19T06:46:01;6.23;;;4.50;;
10088;SDS011;51898;49.864;8.550;2023-11-19T06:49:03;6.53;;;4.20;;
10088;SDS011;51898;49.864;8.550;2023-11-19T06:52:05;5.13;;;3.83;;
10088;SDS011;51898;49.864;8.550;2023-11-19T06:55:06;4.20;;;3.67;;
10088;SDS011;51898;49.864;8.550;2023-11-19T06:58:09;5.70;;;4.50;;
10088;SDS011;51898;49.864;8.550;2023-11-19T07:01:11;5.53;;;4.10;;
10088;SDS011;51898;49.864;8.550;2023-11-19T07:04:13;6.70;;;4.20;;
10088;SDS011;51898;49.864;8.550;2023-11-19T07:07:14;5.50;;;3.80;;
10088;SDS011;51898;49.864;8.550;2023-11-19T07:10:16;7.03;;;4.37;;
10088;SDS011;51898;49.864;8.550;2023-11-19T07:13:18;9.43;;;4.80;;
10088;SDS011;51898;49.864;8.550;2023-11-19T07:16:20;6.83;;;4.37;;
10088;SDS011;51898;49.864;8.550;2023-11-19T07:19:22;4.83;;;3.93;;
10088;SDS011;51898;49.864;8.550;2023-11-19T07:22:25;5.83;;;4.00;;
10088;SDS011;51898;49.864;8.550;2023-11-19T07:25:26;4.83;;;3.97;;
10088;SDS011;51898;49.864;8.550;2023-11-19T07:28:28;6.37;;;3.90;;
10088;SDS011;51898;49.864;8.550;2023-11-19T07:31:30;5.57;;;3.93;;
10088;SDS011;51898;49.864;8.550;2023-11-19T07:34:31;8.33;;;4.13;;
10088;SDS011;51898;49.864;8.550;2023-11-19T07:37:33;7.67;;;4.60;;
10088;SDS011;51898;49.864;8.550;2023-11-19T07:40:35;5.40;;;4.07;;
10088;SDS011;51898;49.864;8.550;2023-11-19T07:43:37;4.40;;;3.70;;
10088;SDS011;51898;49.864;8.550;2023-11-19T07:46:38;4.30;;;3.17;;
10088;SDS011;51898;49.864;8.550;2023-11-19T07:49:40;5.67;;;3.80;;
10088;SDS011;51898;49.864;8.550;2023-11-19T07:52:43;8.93;;;3.50;;
10088;SDS011;51898;49.864;8.550;2023-11-19T07:55:45;5.93;;;3.60;;
10088;SDS011;51898;49.864;8.550;2023-11-19T07:58:47;8.23;;;3.43;;
10088;SDS011;51898;49.864;8.550;2023-11-19T08:01:49;4.40;;;3.37;;
10088;SDS011;51898;49.864;8.550;2023-11-19T08:04:51;3.73;;;3.03;;
10088;SDS011;51898;49.864;8.550;2023-11-19T08:07:53;4.40;;;3.47;;
10088;SDS011;51898;49.864;8.550;2023-11-19T08:10:55;7.50;;;3.30;;
10088;SDS011;51898;49.864;8.550;2023-11-19T08:13:57;5.73;;;2.83;;
10088;SDS011;51898;49.864;8.550;2023-11-19T08:16:59;4.20;;;2.90;;
10088;SDS011;51898;49.864;8.550;2023-11-19T08:20:01;3.00;;;2.80;;
10088;SDS011;51898;49.864;8.550;2023-11-19T08:23:02;3.90;;;2.80;;
10088;SDS011;51898;49.864;8.550;2023-11-19T08:26:07;2.67;;;2.47;;
10088;SDS011;51898;49.864;8.550;2023-11-19T08:29:09;3.60;;;2.17;;
10088;SDS011;51898;49.864;8.550;2023-11-19T08:32:10;2.33;;;2.13;;
10088;SDS011;51898;49.864;8.550;2023-11-19T08:35:12;2.43;;;2.23;;
10088;SDS011;51898;49.864;8.550;2023-11-19T08:38:14;2.80;;;2.20;;
10088;SDS011;51898;49.864;8.550;2023-11-19T08:41:30;4.57;;;2.30;;
10088;SDS011;51898;49.864;8.550;2023-11-19T08:44:32;4.60;;;2.77;;
10088;SDS011;51898;49.864;8.550;2023-11-19T08:47:34;2.93;;;2.37;;
10088;SDS011;51898;49.864;8.550;2023-11-19T08:50:36;2.53;;;2.00;;
10088;SDS011;51898;49.864;8.550;2023-11-19T08:53:37;3.80;;;2.67;;
10088;SDS011;51898;49.864;8.550;2023-11-19T08:56:39;6.13;;;2.60;;
10088;SDS011;51898;49.864;8.550;2023-11-19T08:59:41;6.37;;;2.40;;
10088;SDS011;51898;49.864;8.550;2023-11-19T09:02:43;5.00;;;3.07;;
10088;SDS011;51898;49.864;8.550;2023-11-19T09:05:45;3.03;;;2.73;;
10088;SDS011;51898;49.864;8.550;2023-11-19T09:08:47;3.70;;;3.20;;
10088;SDS011;51898;49.864;8.550;2023-11-19T09:11:49;2.97;;;2.67;;
10088;SDS011;51898;49.864;8.550;2023-11-19T09:14:50;4.50;;;2.00;;
10088;SDS011;51898;49.864;8.550;2023-11-19T09:17:52;5.47;;;1.60;;
10088;SDS011;51898;49.864;8.550;2023-11-19T09:20:54;4.67;;;1.90;;
10088;SDS011;51898;49.864;8.550;2023-11-19T09:23:56;3.13;;;2.30;;
10088;SDS011;51898;49.864;8.550;2023-11-19T09:26:58;3.47;;;2.23;;
10088;SDS011;51898;49.864;8.550;2023-11-19T09:30:01;3.67;;;1.70;;
10088;SDS011;51898;49.864;8.550;2023-11-19T09:33:05;3.57;;;2.30;;
10088;SDS011;51898;49.864;8.550;2023-11-19T09:36:07;2.73;;;2.13;;
10088;SDS011;51898;49.864;8.550;2023-11-19T09:39:10;2.50;;;2.10;;
10088;SDS011;51898;49.864;8.550;2023-11-19T09:42:16;6.77;;;3.30;;
10088;SDS011;51898;49.864;8.550;2023-11-19T09:45:20;3.50;;;2.30;;
10088;SDS011;51898;49.864;8.550;2023-11-19T09:48:22;3.00;;;1.77;;
10088;SDS011;51898;49.864;8.550;2023-11-19T09:51:25;2.10;;;1.53;;
10088;SDS011;51898;49.864;8.550;2023-11-19T09:54:28;5.73;;;2.80;;
10088;SDS011;51898;49.864;8.550;2023-11-19T09:57:29;2.80;;;2.13;;
10088;SDS011;51898;49.864;8.550;2023-11-19T10:00:34;5.37;;;2.47;;
10088;SDS011;51898;49.864;8.550;2023-11-19T10:03:36;3.60;;;2.17;;
10088;SDS011;51898;49.864;8.550;2023-11-19T10:06:41;7.10;;;2.00;;
10088;SDS011;51898;49.864;8.550;2023-11-19T10:09:43;4.30;;;1.97;;
10088;SDS011;51898;49.864;8.550;2023-11-19T10:12:45;2.70;;;2.50;;
10088;SDS011;51898;49.864;8.550;2023-11-19T10:15:53;2.30;;;2.00;;
10088;SDS011;51898;49.864;8.550;2023-11-19T10:18:58;3.00;;;1.90;;
10088;SDS011;51898;49.864;8.550;2023-11-19T10:22:06;3.63;;;1.80;;
10088;SDS011;51898;49.864;8.550;2023-11-19T10:25:26;3.33;;;2.57;;
10088;SDS011;51898;49.864;8.550;2023-11-19T10:28:34;3.20;;;2.37;;
10088;SDS011;51898;49.864;8.550;2023-11-19T10:31:40;2.77;;;2.57;;
10088;SDS011;51898;49.864;8.550;2023-11-19T10:35:04;3.20;;;2.20;;
10088;SDS011;51898;49.864;8.550;2023-11-19T10:38:14;4.63;;;2.07;;
10088;SDS011;51898;49.864;8.550;2023-11-19T10:41:26;3.40;;;2.40;;
10088;SDS011;51898;49.864;8.550;2023-11-19T10:44:32;5.60;;;4.77;;
10088;SDS011;51898;49.864;8.550;2023-11-19T10:47:39;5.37;;;2.43;;
10088;SDS011;51898;49.864;8.550;2023-11-19T10:50:44;3.40;;;2.33;;
10088;SDS011;51898;49.864;8.550;2023-11-19T10:53:47;3.23;;;2.10;;
10088;SDS011;51898;49.864;8.550;2023-11-19T10:56:56;5.77;;;2.37;;
10088;SDS011;51898;49.864;8.550;2023-11-19T11:00:02;5.30;;;2.37;;
10088;SDS011;51898;49.864;8.550;2023-11-19T11:03:15;3.10;;;2.00;;
10088;SDS011;51898;49.864;8.550;2023-11-19T11:06:27;6.33;;;3.37;;
10088;SDS011;51898;49.864;8.550;2023-11-19T11:09:30;3.60;;;3.30;;
10088;SDS011;51898;49.864;8.550;2023-11-19T11:12:33;14.83;;;9.77;;
10088;SDS011;51898;49.864;8.550;2023-11-19T11:15:40;11.43;;;9.23;;
10088;SDS011;51898;49.864;8.550;2023-11-19T11:18:43;3.30;;;1.57;;
10088;SDS011;51898;49.864;8.550;2023-11-19T11:21:48;4.43;;;2.00;;
10088;SDS011;51898;49.864;8.550;2023-11-19T11:24:58;5.03;;;1.93;;
10088;SDS011;51898;49.864;8.550;2023-11-19T11:38:42;2.67;;;1.43;;
10088;SDS011;51898;49.864;8.550;2023-11-19T11:41:44;4.00;;;1.30;;
10088;SDS011;51898;49.864;8.550;2023-11-19T11:48:11;5.03;;;1.60;;
10088;SDS011;51898;49.864;8.550;2023-11-19T11:51:17;6.57;;;2.00;;
10088;SDS011;51898;49.864;8.550;2023-11-19T11:57:20;4.30;;;1.60;;
10088;SDS011;51898;49.864;8.550;2023-11-19T12:00:29;10.57;;;2.07;;
10088;SDS011;51898;49.864;8.550;2023-11-19T12:03:32;3.07;;;1.60;;
10088;SDS011;51898;49.864;8.550;2023-11-19T12:06:35;2.30;;;1.63;;
10088;SDS011;51898;49.864;8.550;2023-11-19T12:09:39;7.10;;;1.60;;
10088;SDS011;51898;49.864;8.550;2023-11-19T12:12:42;4.67;;;3.30;;
10088;SDS011;51898;49.864;8.550;2023-11-19T12:19:01;4.90;;;1.83;;
10088;SDS011;51898;49.864;8.550;2023-11-19T12:22:10;6.53;;;1.70;;
10088;SDS011;51898;49.864;8.550;2023-11-19T12:25:12;11.30;;;1.80;;
10088;SDS011;51898;49.864;8.550;2023-11-19T12:28:15;3.50;;;1.60;;
10088;SDS011;51898;49.864;8.550;2023-11-19T12:31:20;6.30;;;1.50;;
10088;SDS011;51898;49.864;8.550;2023-11-19T12:34:22;3.80;;;1.63;;
10088;SDS011;51898;49.864;8.550;2023-11-19T12:37:26;3.93;;;1.67;;
10088;SDS011;51898;49.864;8.550;2023-11-19T12:40:27;2.80;;;1.10;;
10088;SDS011;51898;49.864;8.550;2023-11-19T12:43:30;3.97;;;2.00;;
10088;SDS011;51898;49.864;8.550;2023-11-19T12:46:32;5.03;;;1.43;;
10088;SDS011;51898;49.864;8.550;2023-11-19T12:49:33;5.67;;;2.43;;
10088;SDS011;51898;49.864;8.550;2023-11-19T12:52:38;4.03;;;1.80;;
10088;SDS011;51898;49.864;8.550;2023-11-19T12:55:40;6.00;;;1.50;;
10088;SDS011;51898;49.864;8.550;2023-11-19T12:58:42;6.00;;;1.40;;
10088;SDS011;51898;49.864;8.550;2023-11-19T13:04:58;8.77;;;1.80;;
10088;SDS011;51898;49.864;8.550;2023-11-19T13:08:20;4.27;;;1.80;;
10088;SDS011;51898;49.864;8.550;2023-11-19T13:11:31;5.73;;;1.50;;
10088;SDS011;51898;49.864;8.550;2023-11-19T13:14:37;5.47;;;1.50;;
10088;SDS011;51898;49.864;8.550;2023-11-19T13:17:39;4.33;;;1.60;;
10088;SDS011;51898;49.864;8.550;2023-11-19T13:20:41;4.30;;;1.40;;
10088;SDS011;51898;49.864;8.550;2023-11-19T13:23:44;5.37;;;1.50;;
10088;SDS011;51898;49.864;8.550;2023-11-19T13:26:45;9.33;;;2.50;;
10088;SDS011;51898;49.864;8.550;2023-11-19T13:29:47;6.47;;;1.90;;
10088;SDS011;51898;49.864;8.550;2023-11-19T13:32:49;6.37;;;1.93;;
10088;SDS011;51898;49.864;8.550;2023-11-19T13:35:52;7.40;;;1.63;;
10088;SDS011;51898;49.864;8.550;2023-11-19T13:38:54;4.90;;;1.90;;
10088;SDS011;51898;49.864;8.550;2023-11-19T13:42:01;4.97;;;2.00;;
10088;SDS011;51898;49.864;8.550;2023-11-19T13:45:06;4.43;;;1.60;;
10088;SDS011;51898;49.864;8.550;2023-11-19T13:48:14;4.10;;;1.50;;
10088;SDS011;51898;49.864;8.550;2023-11-19T13:51:17;5.33;;;2.10;;
10088;SDS011;51898;49.864;8.550;2023-11-19T13:54:18;3.90;;;1.60;;
10088;SDS011;51898;49.864;8.550;2023-11-19T13:57:21;8.17;;;1.87;;
10088;SDS011;51898;49.864;8.550;2023-11-19T14:00:23;7.93;;;1.90;;
10088;SDS011;51898;49.864;8.550;2023-11-19T14:03:25;5.63;;;1.67;;
10088;SDS011;51898;49.864;8.550;2023-11-19T14:06:27;6.93;;;1.70;;
10088;SDS011;51898;49.864;8.550;2023-11-19T14:09:29;5.90;;;1.70;;
10088;SDS011;51898;49.864;8.550;2023-11-19T14:12:30;4.60;;;1.73;;
10088;SDS011;51898;49.864;8.550;2023-11-19T14:15:33;7.47;;;1.67;;
10088;SDS011;51898;49.864;8.550;2023-11-19T14:18:35;5.50;;;1.90;;
10088;SDS011;51898;49.864;8.550;2023-11-19T14:21:37;7.20;;;1.80;;
10088;SDS011;51898;49.864;8.550;2023-11-19T14:24:39;3.13;;;1.50;;
10088;SDS011;51898;49.864;8.550;2023-11-19T14:27:43;8.23;;;1.43;;
10088;SDS011;51898;49.864;8.550;2023-11-19T14:30:45;6.30;;;1.70;;
10088;SDS011;51898;49.864;8.550;2023-11-19T14:33:49;6.80;;;1.90;;
10088;SDS011;51898;49.864;8.550;2023-11-19T14:36:50;5.87;;;1.70;;
10088;SDS011;51898;49.864;8.550;2023-11-19T14:39:52;3.90;;;1.50;;
10088;SDS011;51898;49.864;8.550;2023-11-19T14:42:54;8.27;;;1.60;;
10088;SDS011;51898;49.864;8.550;2023-11-19T14:45:56;6.63;;;1.60;;
10088;SDS011;51898;49.864;8.550;2023-11-19T14:48:58;2.77;;;1.87;;
10088;SDS011;51898;49.864;8.550;2023-11-19T14:52:00;9.43;;;1.63;;
10088;SDS011;51898;49.864;8.550;2023-11-19T14:55:04;5.07;;;1.50;;
10088;SDS011;51898;49.864;8.550;2023-11-19T14:58:06;9.70;;;2.17;;
10088;SDS011;51898;49.864;8.550;2023-11-19T15:01:13;5.60;;;1.60;;
10088;SDS011;51898;49.864;8.550;2023-11-19T15:04:15;8.40;;;1.70;;
10088;SDS011;51898;49.864;8.550;2023-11-19T15:07:18;4.73;;;1.70;;
10088;SDS011;51898;49.864;8.550;2023-11-19T15:10:19;3.53;;;1.53;;
10088;SDS011;51898;49.864;8.550;2023-11-19T15:13:21;3.87;;;1.70;;
10088;SDS011;51898;49.864;8.550;2023-11-19T15:16:23;8.17;;;1.60;;
10088;SDS011;51898;49.864;8.550;2023-11-19T15:19:33;10.83;;;2.50;;
10088;SDS011;51898;49.864;8.550;2023-11-19T15:22:35;5.57;;;1.60;;
10088;SDS011;51898;49.864;8.550;2023-11-19T15:25:37;8.17;;;2.10;;
10088;SDS011;51898;49.864;8.550;2023-11-19T15:28:39;5.27;;;2.40;;
10088;SDS011;51898;49.864;8.550;2023-11-19T15:31:40;4.50;;;1.67;;
10088;SDS011;51898;49.864;8.550;2023-11-19T15:34:42;8.10;;;1.53;;
10088;SDS011;51898;49.864;8.550;2023-11-19T15:37:44;3.23;;;1.60;;
10088;SDS011;51898;49.864;8.550;2023-11-19T15:40:46;6.30;;;1.87;;
10088;SDS011;51898;49.864;8.550;2023-11-19T15:43:48;7.00;;;1.73;;
10088;SDS011;51898;49.864;8.550;2023-11-19T15:46:50;10.20;;;1.80;;
10088;SDS011;51898;49.864;8.550;2023-11-19T15:49:51;7.00;;;1.97;;
10088;SDS011;51898;49.864;8.550;2023-11-19T15:52:53;3.03;;;1.73;;
10088;SDS011;51898;49.864;8.550;2023-11-19T15:55:55;4.70;;;1.50;;
10088;SDS011;51898;49.864;8.550;2023-11-19T15:58:56;4.83;;;1.60;;
10088;SDS011;51898;49.864;8.550;2023-11-19T16:01:58;6.77;;;1.40;;
10088;SDS011;51898;49.864;8.550;2023-11-19T16:05:00;4.57;;;1.47;;
10088;SDS011;51898;49.864;8.550;2023-11-19T16:08:02;3.90;;;1.37;;
10088;SDS011;51898;49.864;8.550;2023-11-19T16:11:06;3.30;;;1.60;;
10088;SDS011;51898;49.864;8.550;2023-11-19T16:14:10;6.43;;;1.53;;
10088;SDS011;51898;49.864;8.550;2023-11-19T16:17:12;2.70;;;1.43;;
10088;SDS011;51898;49.864;8.550;2023-11-19T16:20:14;3.73;;;1.40;;
10088;SDS011;51898;49.864;8.550;2023-11-19T16:23:16;3.27;;;1.80;;
10088;SDS011;51898;49.864;8.550;2023-11-19T16:26:20;4.20;;;1.60;;
10088;SDS011;51898;49.864;8.550;2023-11-19T16:29:22;6.37;;;2.00;;
10088;SDS011;51898;49.864;8.550;2023-11-19T16:32:24;8.97;;;1.90;;
10088;SDS011;51898;49.864;8.550;2023-11-19T16:35:26;8.13;;;2.03;;
10088;SDS011;51898;49.864;8.550;2023-11-19T16:38:28;6.80;;;2.10;;
10088;SDS011;51898;49.864;8.550;2023-11-19T16:41:30;5.43;;;2.20;;
10088;SDS011;51898;49.864;8.550;2023-11-19T16:44:42;4.93;;;1.97;;
10088;SDS011;51898;49.864;8.550;2023-11-19T16:47:45;4.70;;;1.33;;
10088;SDS011;51898;49.864;8.550;2023-11-19T16:50:47;3.87;;;2.07;;
10088;SDS011;51898;49.864;8.550;2023-11-19T16:53:53;7.20;;;1.80;;
10088;SDS011;51898;49.864;8.550;2023-11-19T16:56:55;3.73;;;1.93;;
10088;SDS011;51898;49.864;8.550;2023-11-19T16:59:56;8.40;;;1.70;;
10088;SDS011;51898;49.864;8.550;2023-11-19T17:02:58;4.13;;;1.70;;
10088;SDS011;51898;49.864;8.550;2023-11-19T17:06:04;8.33;;;1.90;;
10088;SDS011;51898;49.864;8.550;2023-11-19T17:09:06;5.13;;;1.90;;
10088;SDS011;51898;49.864;8.550;2023-11-19T17:12:13;6.33;;;1.73;;
10088;SDS011;51898;49.864;8.550;2023-11-19T17:15:15;6.23;;;2.23;;
10088;SDS011;51898;49.864;8.550;2023-11-19T17:18:17;6.37;;;2.30;;
10088;SDS011;51898;49.864;8.550;2023-11-19T17:21:20;7.97;;;1.83;;
10088;SDS011;51898;49.864;8.550;2023-11-19T17:24:23;9.27;;;1.77;;
10088;SDS011;51898;49.864;8.550;2023-11-19T17:27:25;4.90;;;1.70;;
10088;SDS011;51898;49.864;8.550;2023-11-19T17:30:28;4.10;;;1.63;;
10088;SDS011;51898;49.864;8.550;2023-11-19T17:33:30;7.53;;;2.47;;
10088;SDS011;51898;49.864;8.550;2023-11-19T17:36:32;10.97;;;1.97;;
10088;SDS011;51898;49.864;8.550;2023-11-19T17:39:33;7.50;;;2.23;;
10088;SDS011;51898;49.864;8.550;2023-11-19T17:42:35;4.77;;;1.97;;
10088;SDS011;51898;49.864;8.550;2023-11-19T17:45:37;9.47;;;1.80;;
10088;SDS011;51898;49.864;8.550;2023-11-19T17:48:40;9.00;;;2.07;;
10088;SDS011;51898;49.864;8.550;2023-11-19T17:51:42;5.23;;;1.87;;
10088;SDS011;51898;49.864;8.550;2023-11-19T17:54:43;4.20;;;1.57;;
10088;SDS011;51898;49.864;8.550;2023-11-19T17:57:45;3.73;;;1.90;;
10088;SDS011;51898;49.864;8.550;2023-11-19T18:00:47;6.70;;;2.63;;
10088;SDS011;51898;49.864;8.550;2023-11-19T18:03:50;10.80;;;2.33;;
10088;SDS011;51898;49.864;8.550;2023-11-19T18:06:52;7.67;;;2.00;;
10088;SDS011;51898;49.864;8.550;2023-11-19T18:09:54;5.37;;;1.90;;
10088;SDS011;51898;49.864;8.550;2023-11-19T18:12:56;7.10;;;2.20;;
10088;SDS011;51898;49.864;8.550;2023-11-19T18:15:57;6.40;;;2.40;;
10088;SDS011;51898;49.864;8.550;2023-11-19T18:18:59;16.57;;;2.60;;
10088;SDS011;51898;49.864;8.550;2023-11-19T18:22:01;8.97;;;2.90;;
10088;SDS011;51898;49.864;8.550;2023-11-19T18:25:07;7.10;;;2.33;;
10088;SDS011;51898;49.864;8.550;2023-11-19T18:28:11;8.47;;;2.40;;
10088;SDS011;51898;49.864;8.550;2023-11-19T18:31:13;9.43;;;2.40;;
10088;SDS011;51898;49.864;8.550;2023-11-19T18:34:15;9.87;;;2.00;;
10088;SDS011;51898;49.864;8.550;2023-11-19T18:37:17;8.70;;;2.37;;
10088;SDS011;51898;49.864;8.550;2023-11-19T18:40:19;6.90;;;2.23;;
10088;SDS011;51898;49.864;8.550;2023-11-19T18:43:22;17.17;;;3.10;;
10088;SDS011;51898;49.864;8.550;2023-11-19T18:46:25;10.40;;;2.50;;